Date,TemperatureHighF,TemperatureAvgF,TemperatureLowF,DewpointHighF,DewpointAvgF,DewpointLowF,HumidityHigh,HumidityAvg,HumidityLow,PressureMaxIn,PressureMinIn,WindSpeedMaxMPH,WindSpeedAvgMPH,GustSpeedMaxMPH,PrecipitationSumIn
2014-1-1,34,29,24,-100,-100,-100,0,0,100,0.00,40.00,0,-999,0,0.00
2014-1-2,35,32,29,-100,-100,-100,0,0,100,0.00,40.00,0,-999,0,0.00
2014-1-3,40,32,25,-100,-100,-100,0,0,100,0.00,40.00,0,-999,0,0.00
2014-1-4,32,24,19,-100,-100,-100,0,0,100,0.00,40.00,0,-999,0,0.00
2014-1-5,31,23,17,-100,-100,-100,0,0,100,0.00,40.00,0,-999,0,0.00
2014-1-6,30,23,16,-100,-100,-100,0,0,100,0.00,40.00,0,-999,0,0.00
2014-1-7,31,27,24,-100,-100,-100,0,0,100,0.00,40.00,0,-999,0,0.00
2014-1-8,30,28,26,-100,-100,-100,0,0,100,0.00,40.00,0,-999,0,0.00
2014-1-9,32,30,25,-100,-100,-100,0,0,100,0.00,40.00,0,-999,0,0.00
2014-1-10,43,36,32,-100,-100,-100,0,0,100,0.00,40.00,0,-999,0,0.00
2014-1-11,38,33,32,-100,-100,-100,0,0,100,0.00,40.00,0,-999,0,0.00
2014-1-12,39,37,32,-100,-100,-100,0,0,100,0.00,40.00,0,-999,0,0.00
2014-1-13,46,42,37,-100,-100,-100,0,0,100,0.00,40.00,0,-999,0,0.00
2014-1-14,45,36,30,-100,-100,-100,0,0,100,0.00,40.00,0,-999,0,0.00
2014-1-15,43,34,27,-100,-100,-100,0,0,100,0.00,40.00,0,-999,0,0.00
2014-1-16,34,29,26,-100,-100,-100,0,0,100,0.00,40.00,0,-999,0,0.00
2014-1-17,33,30,28,-100,-100,-100,0,0,100,0.00,40.00,0,-999,0,0.00
2014-1-18,31,29,27,-100,-100,-100,0,0,100,0.00,40.00,0,-999,0,0.00
2014-1-19,32,29,28,-100,-100,-100,0,0,100,0.00,40.00,0,-999,0,0.00
2014-1-20,31,28,27,-100,-100,-100,0,0,100,0.00,40.00,0,-999,0,0.00
2014-1-21,29,27,26,-100,-100,-100,0,0,100,0.00,40.00,0,-999,0,0.00
2014-1-22,35,29,26,-100,-100,-100,0,0,100,0.00,40.00,0,-999,0,0.00
2014-1-23,33,29,27,-100,-100,-100,0,0,100,0.00,40.00,0,-999,0,0.00
2014-1-24,32,29,27,-100,-100,-100,0,0,100,0.00,40.00,0,-999,0,0.00
2014-1-25,30,28,27,-100,-100,-100,0,0,100,0.00,40.00,0,-999,0,0.00
2014-1-26,29,27,26,-100,-100,-100,0,0,100,0.00,40.00,0,-999,0,0.00
2014-1-27,33,29,26,-100,-100,-100,0,0,100,0.00,40.00,0,-999,0,0.00
2014-1-28,34,31,29,-100,-100,-100,0,0,100,0.00,40.00,0,-999,0,0.00
2014-1-29,35,30,27,-100,-100,-100,0,0,100,0.00,40.00,0,-999,0,0.00
2014-1-30,35,30,25,-100,-100,-100,0,0,100,0.00,40.00,0,-999,0,0.00
2014-1-31,37,32,29,-100,-100,-100,0,0,100,0.00,40.00,0,-999,0,0.00
2014-2-1,34,29,25,-100,-100,-100,0,0,100,0.00,40.00,0,-999,0,0.00
2014-2-2,33,27,23,-100,-100,-100,0,0,100,0.00,40.00,0,-999,0,0.00
2014-2-3,28,23,19,-100,-100,-100,0,0,100,0.00,40.00,0,-999,0,0.00
2014-2-4,23,19,13,-100,-100,-100,0,0,100,0.00,40.00,0,-999,0,0.00
2014-2-5,18,9,-5,-100,-100,-100,0,0,100,0.00,40.00,0,-999,0,0.00
2014-2-6,15,4,-7,-100,-100,-100,0,0,100,0.00,40.00,0,-999,0,0.00
2014-2-7,22,13,8,-100,-100,-100,0,0,100,0.00,40.00,0,-999,0,0.00
2014-2-8,27,16,9,-100,-100,-100,0,0,100,0.00,40.00,0,-999,0,0.00
2014-2-9,29,22,18,-100,-100,-100,0,0,100,0.00,40.00,0,-999,0,0.00
2014-2-10,26,23,20,-100,-100,-100,0,0,100,0.00,40.00,0,-999,0,0.00
2014-2-11,40,31,21,-100,-100,-100,0,0,100,0.00,40.00,0,-999,0,0.00
2014-2-12,39,32,30,-100,-100,-100,0,0,100,0.00,40.00,0,-999,0,0.00
2014-2-13,39,35,31,-100,-100,-100,0,0,100,0.00,40.00,0,-999,0,0.00
2014-2-14,36,32,31,-100,-100,-100,0,0,100,0.00,40.00,0,-999,0,0.00
2014-2-15,33,31,29,-100,-100,-100,0,0,100,0.00,40.00,0,-999,0,0.00
2014-2-16,38,33,32,-100,-100,-100,0,0,100,0.00,40.00,0,-999,0,0.00
2014-2-17,37,33,31,-100,-100,-100,0,0,100,0.00,40.00,0,-999,0,0.00
2014-2-18,32,32,32,-100,-100,-100,0,0,100,0.00,40.00,0,-999,0,0.00
2014-2-19,39,34,31,-100,-100,-100,0,0,100,0.00,40.00,0,-999,0,0.00
2014-2-20,37,34,32,-100,-100,-100,0,0,100,0.00,40.00,0,-999,0,0.00
2014-2-21,37,33,28,-100,-100,-100,0,0,100,0.00,40.00,0,-999,0,0.00
2014-2-22,36,28,22,-100,-100,-100,0,0,100,0.00,40.00,0,-999,0,0.00
2014-2-23,33,30,28,-100,-100,-100,0,0,100,0.00,40.00,0,-999,0,0.00
2014-2-24,34,29,27,-100,-100,-100,0,0,100,0.00,40.00,0,-999,0,0.00
2014-2-25,37,29,27,-100,-100,-100,0,0,100,0.00,40.00,0,-999,0,0.00
2014-2-26,39,31,26,-100,-100,-100,0,0,100,0.00,40.00,0,-999,0,0.00
2014-2-27,41,32,26,-100,-100,-100,0,0,100,0.00,40.00,0,-999,0,0.00
2014-2-28,44,35,30,-100,-100,-100,0,0,100,0.00,40.00,0,-999,0,0.00
2014-3-1,33,24,17,-100,-100,-100,0,0,100,0.00,40.00,0,-999,0,0.00
2014-3-2,25,20,17,-100,-100,-100,0,0,100,0.00,40.00,0,-999,0,0.00
2014-3-3,30,24,20,-100,-100,-100,0,0,100,0.00,40.00,0,-999,0,0.00
2014-3-4,42,34,28,-100,-100,-100,0,0,100,0.00,40.00,0,-999,0,0.00
2014-3-5,44,37,32,-100,-100,-100,0,0,100,0.00,40.00,0,-999,0,0.00
2014-3-6,45,37,32,-100,-100,-100,0,0,100,0.00,40.00,0,-999,0,0.00
2014-3-7,48,37,30,-100,-100,-100,0,0,100,0.00,40.00,0,-999,0,0.00
2014-3-12,48,31,24,-100,-100,-100,0,0,100,0.00,40.00,0,-999,0,0.00
2014-3-13,50,35,26,-100,-100,-100,0,0,100,0.00,40.00,0,-999,0,0.00
2014-3-14,41,36,32,-100,-100,-100,0,0,100,0.00,40.00,0,-999,0,0.00
2014-3-15,49,37,31,-100,-100,-100,0,0,100,0.00,40.00,0,-999,0,0.00
2014-3-16,48,39,34,-100,-100,-100,0,0,100,0.00,40.00,0,-999,0,0.00
2014-3-17,40,36,34,-100,-100,-100,0,0,100,0.00,40.00,0,-999,0,0.00
2014-3-18,51,33,25,-100,-100,-100,0,0,100,0.00,40.00,0,-999,0,0.00
2014-7-24,61,55,48,-100,0,200,0,0,100,0.00,40.00,0,0,0,0.00
2014-7-25,74,64,44,-100,0,200,0,0,100,0.00,40.00,0,0,0,0.00
2014-7-26,82,66,47,-100,0,200,0,0,100,0.00,40.00,0,0,0,0.00
2014-7-27,88,71,53,-100,0,200,0,0,100,0.00,40.00,0,0,0,0.00
2014-7-28,94,73,53,-100,0,200,0,0,100,0.00,40.00,0,0,0,0.00
2014-7-29,94,77,55,-100,0,200,0,0,100,0.00,40.00,0,0,0,0.00
2014-7-30,92,76,61,-100,0,200,0,0,100,0.00,40.00,0,0,0,0.00
2014-7-31,94,77,55,-100,0,200,0,0,100,0.00,40.00,0,0,0,0.00
2014-8-1,93,72,58,-100,0,200,0,0,100,0.00,40.00,0,0,0,0.00
2014-8-2,88,65,53,-100,0,200,0,0,100,0.00,40.00,0,0,0,0.00
2014-8-3,89,73,55,-100,0,200,0,0,100,0.00,40.00,0,0,0,0.00
2014-8-4,91,72,55,-100,0,200,0,0,100,0.00,40.00,0,0,0,0.00
2014-8-5,90,76,52,-100,0,200,0,0,100,0.00,40.00,0,0,0,0.00
2014-8-6,83,74,64,-100,0,200,0,0,100,0.00,40.00,0,0,0,0.00
2014-10-17,51,46,42,-100,0,200,0,0,100,0.00,40.00,0,0,0,0.00
2014-10-18,55,50,47,-100,0,200,0,0,100,0.00,40.00,0,0,0,0.00
2014-10-19,60,53,48,-100,0,200,0,0,100,0.00,40.00,0,0,0,0.00
2014-10-20,54,50,48,-100,0,200,0,0,100,0.00,40.00,0,0,0,0.00
2014-10-21,53,47,43,-100,0,200,0,0,100,0.00,40.00,0,0,0,0.00
2014-10-22,46,43,39,-100,0,200,0,0,100,0.00,40.00,0,0,0,0.00
2014-10-23,49,44,41,-100,0,200,0,0,100,0.00,40.00,0,0,0,0.00
2014-10-25,49,45,42,-100,0,200,0,0,100,0.00,40.00,0,0,0,0.00
2014-10-26,50,43,40,-100,0,200,0,0,100,0.00,40.00,0,0,0,0.00
2014-10-27,47,38,32,-100,0,200,0,0,100,0.00,40.00,0,0,0,0.00
2014-10-28,40,39,37,-100,0,200,0,0,100,0.00,40.00,0,0,0,0.00
2014-10-29,48,43,39,-100,0,200,0,0,100,0.00,40.00,0,0,0,0.00
2014-10-30,48,45,43,-100,0,200,0,0,100,0.00,40.00,0,0,0,0.00
2014-10-31,49,46,42,-100,0,200,0,0,100,0.00,40.00,0,0,0,0.00
2014-11-1,47,40,34,-100,0,200,0,0,100,0.00,40.00,0,0,0,0.00
2014-11-2,49,43,39,-100,0,200,0,0,100,0.00,40.00,0,0,0,0.00
2014-11-3,50,44,39,-100,0,200,0,0,100,0.00,40.00,0,0,0,0.00
2014-11-4,53,46,43,-100,0,200,0,0,100,0.00,40.00,0,0,0,0.00
2014-11-5,51,45,40,-100,0,200,0,0,100,0.00,40.00,0,0,0,0.00
2014-11-6,52,47,45,-100,0,200,0,0,100,0.00,40.00,0,0,0,0.00
2014-11-7,51,41,32,-100,0,200,0,0,100,0.00,40.00,0,0,0,0.00
2014-11-8,44,37,34,-100,0,200,0,0,100,0.00,40.00,0,0,0,0.00
2014-11-9,48,41,34,-100,0,200,0,0,100,0.00,40.00,0,0,0,0.00
2014-11-10,41,34,28,-100,0,200,0,0,100,0.00,40.00,0,0,0,0.00
2014-11-11,30,28,24,-100,0,200,0,0,100,0.00,40.00,0,0,0,0.00
2014-11-12,29,22,14,-100,0,200,0,0,100,0.00,40.00,0,0,0,0.00
2014-11-13,29,20,10,-100,0,200,0,0,100,0.00,40.00,0,0,0,0.00
2014-11-14,29,18,8,-100,0,200,0,0,100,0.00,40.00,0,0,0,0.00
2014-11-15,30,18,8,-100,0,200,0,0,100,0.00,40.00,0,0,0,0.00
2014-11-16,30,19,10,-100,0,200,0,0,100,0.00,40.00,0,0,0,0.00
2014-11-17,31,20,10,-100,0,200,0,0,100,0.00,40.00,0,0,0,0.00
2014-11-18,33,22,12,-100,0,200,0,0,100,0.00,40.00,0,0,0,0.00
2014-11-19,37,27,19,-100,0,200,0,0,100,0.00,40.00,0,0,0,0.00
2014-11-20,36,32,29,-100,0,200,0,0,100,0.00,40.00,0,0,0,0.00
2014-11-21,31,30,27,-100,0,200,0,0,100,0.00,40.00,0,0,0,0.00